Time;durP1;ratioP1;P1;durP2;ratioP2;P2;SDS_P1;SDS_P2;PMS_P1;PMS_P2;Temp;Humidity;BMP_temperature;BMP_pressure;BME280_temperature;BME280_humidity;BME280_pressure;Samples;Min_cycle;Max_cycle;Signal;HPM_P1;HPM_P2
2022/03/02 00:01:48;;;;;;;7.97;3.80;;;;;;;-149.78;100.00;50408.84;4827415;29;20034;-71
2022/03/02 00:04:14;;;;;;;9.13;3.45;;;;;;;-149.78;100.00;50471.44;4826257;29;20035;-71
2022/03/02 00:06:40;;;;;;;17.77;3.55;;;;;;;-149.78;100.00;50440.16;4827287;29;20087;-71
2022/03/02 00:09:06;;;;;;;7.28;3.60;;;;;;;-149.78;100.00;50408.84;4808744;29;20415;-71
2022/03/02 00:11:32;;;;;;;12.90;3.85;;;;;;;-149.78;100.00;50416.69;4793011;29;20046;-71
2022/03/02 00:14:00;;;;;;;9.02;4.15;;;;;;;-149.78;100.00;50422.56;4808906;29;20088;-71
2022/03/02 00:16:28;;;;;;;11.13;3.97;;;;;;;-149.78;100.00;50406.91;4808954;29;20043;-72
2022/03/02 00:18:55;;;;;;;13.63;4.07;;;;;;;-149.78;100.00;50420.59;4807874;29;20053;-72
2022/03/02 00:21:21;;;;;;;11.07;4.30;;;;;;;-149.78;100.00;50404.94;4807980;29;20047;-71
2022/03/02 00:23:47;;;;;;;14.55;4.13;;;;;;;-149.78;100.00;50399.09;4808808;29;20062;-72
2022/03/02 00:26:13;;;;;;;13.07;4.53;;;;;;;-149.78;100.00;50420.59;4809001;29;20038;-72
2022/03/02 00:28:39;;;;;;;12.65;3.92;;;;;;;-149.78;100.00;50430.38;4792616;29;20047;-71
2022/03/02 00:31:04;;;;;;;14.02;4.82;;;;;;;-149.78;100.00;50424.50;4808876;29;20046;-71
2022/03/02 00:33:30;;;;;;;13.95;4.35;;;;;;;-149.78;100.00;50422.56;4792703;29;20562;-72
2022/03/02 00:35:56;;;;;;;10.88;4.40;;;;;;;-149.78;100.00;50420.59;4792028;29;20053;-71
2022/03/02 00:38:22;;;;;;;10.80;4.10;;;;;;;-149.78;100.00;50420.59;4808873;29;20076;-71
2022/03/02 00:40:47;;;;;;;10.65;4.00;;;;;;;-149.78;100.00;50381.47;4777360;29;20142;-71
2022/03/02 00:43:13;;;;;;;18.55;4.57;;;;;;;-149.78;100.00;50428.41;4807579;29;20046;-71
2022/03/02 00:45:39;;;;;;;10.80;4.18;;;;;;;-149.78;100.00;50424.50;4784510;29;20051;-71
2022/03/02 00:48:06;;;;;;;9.23;4.03;;;;;;;-149.78;100.00;50428.41;4826749;29;20042;-71
2022/03/02 00:50:33;;;;;;;9.52;4.57;;;;;;;-149.78;100.00;50412.78;4825488;29;20045;-72
2022/03/02 00:52:59;;;;;;;13.93;4.28;;;;;;;-149.78;100.00;50440.16;4826589;29;20034;-72
2022/03/02 00:55:25;;;;;;;10.95;4.10;;;;;;;-149.78;100.00;50404.94;4826391;29;20061;-72
2022/03/02 00:57:51;;;;;;;17.70;4.15;;;;;;;-149.78;100.00;50459.72;4826494;29;20479;-72
2022/03/02 01:00:17;;;;;;;11.15;4.05;;;;;;;-149.78;100.00;50432.31;4810376;29;20048;-71
2022/03/02 01:02:43;;;;;;;11.23;4.30;;;;;;;-149.78;100.00;50389.31;4825142;29;20387;-72
2022/03/02 01:05:10;;;;;;;11.73;4.32;;;;;;;-149.78;100.00;50373.66;4826362;29;20099;-71
2022/03/02 01:07:35;;;;;;;13.23;5.47;;;;;;;-149.78;100.00;50408.84;4804161;29;20035;-72
2022/03/02 01:10:04;;;;;;;15.90;5.00;;;;;;;-149.78;100.00;50432.31;4807118;29;20454;-73
2022/03/02 01:12:30;;;;;;;16.15;5.10;;;;;;;-149.78;100.00;50428.41;4807027;29;20062;-72
2022/03/02 01:14:56;;;;;;;15.70;4.72;;;;;;;-149.78;100.00;50393.22;4808082;29;20081;-71
2022/03/02 01:17:22;;;;;;;16.77;4.50;;;;;;;-149.78;100.00;50416.69;4807272;29;20055;-72
2022/03/02 01:19:49;;;;;;;17.63;4.88;;;;;;;-149.78;100.00;50403.00;4807868;29;20053;-72
2022/03/02 01:22:15;;;;;;;18.30;6.07;;;;;;;-149.78;100.00;50410.81;4807857;29;20074;-72
2022/03/02 01:24:42;;;;;;;13.50;5.53;;;;;;;-149.78;100.00;50399.09;4807923;29;20392;-72
2022/03/02 01:27:07;;;;;;;14.98;5.28;;;;;;;-149.78;100.00;50404.94;4788431;30;20053;-72
2022/03/02 01:29:36;;;;;;;17.75;5.75;;;;;;;-149.78;100.00;50428.41;4789701;29;20048;-71
2022/03/02 01:32:08;;;;;;;22.17;7.07;;;;;;;-149.78;100.00;50385.38;4790001;30;20098;-72
2022/03/02 01:34:35;;;;;;;16.35;5.72;;;;;;;-149.78;100.00;50420.59;4773896;30;20043;-72
2022/03/02 01:37:00;;;;;;;22.15;7.18;;;;;;;-149.78;100.00;50453.84;4789671;30;20498;-72
2022/03/02 01:39:26;;;;;;;20.20;6.40;;;;;;;-149.78;100.00;50404.94;4789811;30;20130;-72
2022/03/02 01:41:52;;;;;;;18.85;6.00;;;;;;;-149.78;100.00;50424.50;4789473;30;20043;-72
2022/03/02 01:44:18;;;;;;;20.73;8.10;;;;;;;-149.78;100.00;50412.78;4789568;30;20035;-72
2022/03/02 01:46:44;;;;;;;25.00;7.78;;;;;;;-149.78;100.00;50416.69;4819009;29;20148;-71
2022/03/02 01:49:10;;;;;;;31.35;8.57;;;;;;;-149.78;100.00;50424.50;4825726;29;20037;-73
2022/03/02 01:51:37;;;;;;;26.60;9.35;;;;;;;-149.78;100.00;50424.50;4825655;29;20486;-71
2022/03/02 01:54:04;;;;;;;28.50;8.85;;;;;;;-149.78;100.00;50420.59;4825721;29;20037;-71
2022/03/02 01:56:30;;;;;;;26.17;8.15;;;;;;;-149.78;100.00;50428.41;4825162;29;20038;-72
2022/03/02 01:58:56;;;;;;;27.20;9.10;;;;;;;-149.78;100.00;50453.84;4825517;29;20394;-72
2022/03/02 02:01:22;;;;;;;26.73;8.48;;;;;;;-149.78;100.00;50447.97;4825512;29;20129;-71
2022/03/02 02:03:47;;;;;;;27.40;10.02;;;;;;;-149.78;100.00;50430.38;4824375;29;20053;-72
2022/03/02 02:06:13;;;;;;;24.48;8.60;;;;;;;-149.78;100.00;50455.81;4806826;29;20038;-72
2022/03/02 02:08:41;;;;;;;30.55;10.32;;;;;;;-149.78;100.00;50404.94;4805897;29;20035;-72
2022/03/02 02:11:09;;;;;;;29.52;10.02;;;;;;;-149.78;100.00;50424.50;4804935;29;20081;-72
2022/03/02 02:13:35;;;;;;;38.03;10.50;;;;;;;-149.78;100.00;50449.94;4806695;29;20034;-71
2022/03/02 02:16:04;;;;;;;27.92;9.20;;;;;;;-149.78;100.00;50440.16;4805984;29;20046;-72
2022/03/02 02:18:30;;;;;;;31.10;10.07;;;;;;;-149.78;100.00;50428.41;4806030;29;20070;-72
2022/03/02 02:21:00;;;;;;;32.92;10.32;;;;;;;-149.78;100.00;50444.06;4790734;29;20067;-72
2022/03/02 02:23:26;;;;;;;35.20;10.60;;;;;;;-149.78;100.00;50416.69;4806647;29;20034;-72
2022/03/02 02:25:52;;;;;;;30.85;11.50;;;;;;;-149.78;100.00;50436.25;4790214;29;20395;-72
2022/03/02 02:28:22;;;;;;;38.17;11.23;;;;;;;-149.78;100.00;50430.38;4804187;29;20053;-71
2022/03/02 02:30:50;;;;;;;35.97;11.68;;;;;;;-149.78;100.00;50447.97;4805787;29;20054;-72
2022/03/02 02:33:16;;;;;;;40.35;12.43;;;;;;;-149.78;100.00;50422.56;4806480;29;20395;-72
2022/03/02 02:35:41;;;;;;;39.50;11.23;;;;;;;-149.78;100.00;50428.41;4806326;29;20046;-72
2022/03/02 02:38:07;;;;;;;40.47;11.75;;;;;;;-149.78;100.00;50455.81;4806139;29;20495;-74
2022/03/02 02:40:33;;;;;;;33.63;11.48;;;;;;;-149.78;100.00;50424.50;4806112;29;20491;-72
2022/03/02 02:42:59;;;;;;;44.00;12.85;;;;;;;-149.78;100.00;50457.75;4790031;29;20419;-72
2022/03/02 02:45:24;;;;;;;38.97;11.98;;;;;;;-149.78;100.00;50455.81;4806493;29;20035;-72
2022/03/02 02:47:54;;;;;;;38.72;10.98;;;;;;;-149.78;100.00;50447.97;4806607;29;20050;-72
2022/03/02 02:50:28;;;;;;;35.30;10.63;;;;;;;-149.78;100.00;50420.59;4805580;29;20404;-72
2022/03/02 02:52:56;;;;;;;31.45;10.27;;;;;;;-149.78;100.00;50475.34;4806592;29;20038;-73
2022/03/02 02:55:25;;;;;;;32.47;8.93;;;;;;;-149.78;100.00;50479.28;4806469;29;20038;-73
2022/03/02 02:57:51;;;;;;;36.40;10.23;;;;;;;-149.78;100.00;50414.72;4824376;29;20038;-72
2022/03/02 03:00:19;;;;;;;32.95;9.60;;;;;;;-149.78;100.00;50401.03;4824892;29;20040;-73
2022/03/02 03:02:47;;;;;;;31.55;9.00;;;;;;;-149.78;100.00;50444.06;4808351;29;20039;-72
2022/03/02 03:05:18;;;;;;;43.85;10.40;;;;;;;-149.78;100.00;50436.25;4824683;29;20045;-72
2022/03/02 03:07:45;;;;;;;29.73;9.33;;;;;;;-149.78;100.00;50428.41;4824703;29;20034;-72
2022/03/02 03:10:14;;;;;;;38.05;10.15;;;;;;;-149.78;100.00;50416.69;4823534;29;20035;-71
2022/03/02 03:12:39;;;;;;;33.53;9.27;;;;;;;-149.78;100.00;50428.41;4824728;29;20037;-72
2022/03/02 03:15:09;;;;;;;42.35;9.93;;;;;;;-149.78;100.00;50444.06;4824489;29;20038;-71
2022/03/02 03:17:35;;;;;;;29.00;8.57;;;;;;;-149.78;100.00;50397.13;4787142;30;20122;-71
2022/03/02 03:20:02;;;;;;;30.77;9.23;;;;;;;-149.78;100.00;50483.19;4789974;29;20047;-70
2022/03/02 03:22:27;;;;;;;33.33;9.20;;;;;;;-149.78;100.00;50451.88;4806064;29;20034;-71
2022/03/02 03:24:53;;;;;;;30.05;9.02;;;;;;;-149.78;100.00;50467.53;4789911;29;20556;-71
2022/03/02 03:27:19;;;;;;;36.53;9.70;;;;;;;-149.78;100.00;50463.63;4806107;29;20484;-72
2022/03/02 03:29:45;;;;;;;41.03;10.35;;;;;;;-149.78;100.00;50404.94;4804741;29;20495;-70
2022/03/02 03:32:11;;;;;;;31.65;9.48;;;;;;;-149.78;100.00;50432.31;4806259;29;20483;-71
2022/03/02 03:34:37;;;;;;;35.33;8.65;;;;;;;-149.78;100.00;50420.59;4814517;29;20034;-71
2022/03/02 03:37:03;;;;;;;30.23;9.30;;;;;;;-149.78;100.00;50426.47;4824118;29;20043;-71
2022/03/02 03:39:28;;;;;;;34.22;10.43;;;;;;;-149.78;100.00;50447.97;4824072;29;20094;-71
2022/03/02 03:41:55;;;;;;;39.08;9.63;;;;;;;-149.78;100.00;50397.13;4807821;29;20039;-71
2022/03/02 03:44:22;;;;;;;35.55;10.15;;;;;;;-149.78;100.00;50428.41;4818183;29;20072;-71
2022/03/02 03:46:48;;;;;;;42.30;10.07;;;;;;;-149.78;100.00;50432.31;4801314;29;20063;-71
2022/03/02 03:49:13;;;;;;;39.63;10.57;;;;;;;-149.78;100.00;50408.84;4786882;30;20067;-71
2022/03/02 03:51:39;;;;;;;40.15;11.25;;;;;;;-149.78;100.00;50428.41;4807848;29;20443;-72
2022/03/02 03:54:05;;;;;;;40.97;11.27;;;;;;;-149.78;100.00;50436.25;4807775;29;20060;-71
2022/03/02 03:56:31;;;;;;;42.78;10.57;;;;;;;-149.78;100.00;50404.94;4809642;29;20039;-71
2022/03/02 03:58:59;;;;;;;47.63;12.18;;;;;;;-149.78;100.00;50432.31;4823389;29;20129;-71
2022/03/02 04:01:25;;;;;;;49.47;11.63;;;;;;;-149.78;100.00;50426.47;4823156;29;20074;-72
2022/03/02 04:03:51;;;;;;;47.30;11.60;;;;;;;-149.78;100.00;50420.59;4822510;29;20501;-71
2022/03/02 04:06:17;;;;;;;50.78;12.50;;;;;;;-149.78;100.00;50404.94;4823717;29;20042;-71
2022/03/02 04:08:43;;;;;;;49.95;11.98;;;;;;;-149.78;100.00;50440.16;4822586;29;20046;-71
2022/03/02 04:11:09;;;;;;;41.17;11.93;;;;;;;-149.78;100.00;50414.72;4826268;29;20038;-71
2022/03/02 04:13:35;;;;;;;53.00;12.57;;;;;;;-149.78;100.00;50436.25;4824956;29;20044;-71
2022/03/02 04:16:00;;;;;;;44.05;12.18;;;;;;;-149.78;100.00;50465.56;4823159;29;20129;-71
2022/03/02 04:18:26;;;;;;;46.00;12.02;;;;;;;-149.78;100.00;50438.19;4808009;29;20051;-71
2022/03/02 04:20:52;;;;;;;50.30;12.32;;;;;;;-149.78;100.00;50447.97;4789174;29;20080;-70
2022/03/02 04:23:19;;;;;;;45.35;12.60;;;;;;;-149.78;100.00;50447.97;4806936;29;20503;-71
2022/03/02 04:25:44;;;;;;;53.40;12.25;;;;;;;-149.78;100.00;50416.69;4820904;29;20091;-71
2022/03/02 04:28:10;;;;;;;51.25;12.30;;;;;;;-149.78;100.00;50422.56;4816423;29;20129;-71
2022/03/02 04:30:37;;;;;;;40.45;10.70;;;;;;;-149.78;100.00;50410.81;4824716;29;20065;-71
2022/03/02 04:33:03;;;;;;;44.15;11.40;;;;;;;-149.78;100.00;50432.31;4810702;29;20046;-71
2022/03/02 04:35:29;;;;;;;37.90;10.75;;;;;;;-149.78;100.00;50432.31;4811594;29;20716;-71
2022/03/02 04:37:55;;;;;;;45.60;11.35;;;;;;;-149.78;100.00;50426.47;4814269;29;20049;-71
2022/03/02 04:40:21;;;;;;;46.60;11.00;;;;;;;-149.78;100.00;50440.16;4792299;29;20053;-71
2022/03/02 04:42:46;;;;;;;40.38;10.70;;;;;;;-149.78;100.00;50426.47;4825219;29;20042;-71
2022/03/02 04:45:13;;;;;;;43.70;11.68;;;;;;;-149.78;100.00;50475.34;4826731;29;20043;-71
2022/03/02 04:47:39;;;;;;;44.50;11.60;;;;;;;-149.78;100.00;50428.41;4822803;29;20502;-70
2022/03/02 04:50:07;;;;;;;45.20;12.82;;;;;;;-149.78;100.00;50424.50;4815456;29;20117;-71
2022/03/02 04:52:32;;;;;;;42.03;12.35;;;;;;;-149.78;100.00;50483.19;4811296;29;20035;-71
2022/03/02 04:55:07;;;;;;;43.78;11.93;;;;;;;-149.78;100.00;50422.56;4821990;29;20042;-71
2022/03/02 04:57:39;;;;;;;55.50;13.88;;;;;;;-149.78;100.00;50440.16;4824067;29;20411;-71
2022/03/02 05:00:20;;;;;;;56.28;14.18;;;;;;;-149.78;100.00;50426.47;4807068;29;20113;-70
2022/03/02 05:02:46;;;;;;;54.85;14.68;;;;;;;-149.78;100.00;50432.31;4822146;29;20039;-71
2022/03/02 05:05:14;;;;;;;73.80;18.52;;;;;;;-149.78;100.00;50430.38;4823457;29;20376;-71
2022/03/02 05:07:42;;;;;;;102.93;23.35;;;;;;;-149.78;100.00;50428.41;4822297;29;20039;-71
2022/03/02 05:10:08;;;;;;;119.35;23.80;;;;;;;-149.78;100.00;50432.31;4807725;29;20476;-70
2022/03/02 05:12:35;;;;;;;133.60;26.33;;;;;;;-149.78;100.00;50467.53;4807865;29;20046;-70
2022/03/02 05:15:01;;;;;;;136.95;27.90;;;;;;;-149.78;100.00;50436.25;4821586;29;20057;-71
2022/03/02 05:17:26;;;;;;;154.27;30.13;;;;;;;-149.78;100.00;50438.19;4810506;29;20395;-71
2022/03/02 05:19:52;;;;;;;158.15;30.50;;;;;;;-149.78;100.00;50440.16;4803474;29;20411;-72
2022/03/02 05:22:17;;;;;;;140.88;28.92;;;;;;;-149.78;100.00;50430.38;4811613;29;20047;-72
2022/03/02 05:24:43;;;;;;;144.82;31.15;;;;;;;-149.78;100.00;50389.31;4818617;29;20045;-75
2022/03/02 05:27:09;;;;;;;152.85;30.58;;;;;;;-149.78;100.00;50498.81;4820739;29;20066;-73
2022/03/02 05:29:35;;;;;;;157.50;29.23;;;;;;;-149.78;100.00;50404.94;4805929;29;20461;-72
2022/03/02 05:32:02;;;;;;;143.70;29.23;;;;;;;-149.78;100.00;50428.41;4809038;29;20128;-72
2022/03/02 05:34:27;;;;;;;125.60;27.95;;;;;;;-149.78;100.00;50444.06;4815584;29;20039;-71
2022/03/02 05:36:53;;;;;;;138.13;29.52;;;;;;;-149.78;100.00;50440.16;4807421;29;20569;-71
2022/03/02 05:39:19;;;;;;;151.10;32.08;;;;;;;-149.78;100.00;50414.72;4823505;29;20078;-73
2022/03/02 05:41:45;;;;;;;164.70;33.72;;;;;;;-149.78;100.00;50424.50;4823910;29;20091;-73
2022/03/02 05:44:12;;;;;;;159.30;32.97;;;;;;;-149.78;100.00;50451.88;4825817;29;20042;-73
2022/03/02 05:46:38;;;;;;;200.00;34.97;;;;;;;-149.78;100.00;50414.72;4824607;29;20052;-72
2022/03/02 05:49:05;;;;;;;198.80;36.80;;;;;;;-149.78;100.00;50471.44;4811387;29;20042;-73
2022/03/02 05:51:31;;;;;;;212.90;39.05;;;;;;;-149.78;100.00;50428.41;4822514;29;20730;-73
2022/03/02 05:53:58;;;;;;;203.35;38.72;;;;;;;-149.78;100.00;50432.31;4813594;29;20400;-72
2022/03/02 05:56:24;;;;;;;198.90;39.92;;;;;;;-149.78;100.00;50440.16;4825502;29;20042;-71
2022/03/02 05:58:51;;;;;;;198.80;36.78;;;;;;;-149.78;100.00;50440.16;4812711;29;20039;-71
2022/03/02 06:01:17;;;;;;;214.70;38.83;;;;;;;-149.78;100.00;50471.44;4823033;29;20087;-71
2022/03/02 06:03:44;;;;;;;213.27;40.67;;;;;;;-149.78;100.00;50447.97;4807192;29;20399;-71
2022/03/02 06:06:10;;;;;;;222.57;42.00;;;;;;;-149.78;100.00;50440.16;4809082;29;20471;-71
2022/03/02 06:08:36;;;;;;;203.13;41.05;;;;;;;-149.78;100.00;50412.78;4805972;29;20096;-71
2022/03/02 06:11:02;;;;;;;215.55;39.88;;;;;;;-149.78;100.00;50434.28;4821192;29;20050;-72
2022/03/02 06:13:28;;;;;;;222.45;41.90;;;;;;;-149.78;100.00;50447.97;4810129;29;20494;-71
2022/03/02 06:15:54;;;;;;;227.27;40.65;;;;;;;-149.78;100.00;50447.97;4819701;29;20122;-71
2022/03/02 06:18:20;;;;;;;219.65;42.25;;;;;;;-149.78;100.00;50459.72;4808647;29;20133;-71
2022/03/02 06:20:50;;;;;;;226.13;43.33;;;;;;;-149.78;100.00;50455.81;4796209;29;20402;-71
2022/03/02 06:23:16;;;;;;;205.98;41.42;;;;;;;-149.78;100.00;50432.31;4804394;29;20526;-71
2022/03/02 06:25:42;;;;;;;216.10;42.25;;;;;;;-149.78;100.00;50436.25;4817260;29;20039;-72
2022/03/02 06:28:08;;;;;;;219.55;43.38;;;;;;;-149.78;100.00;50436.25;4805406;29;20129;-71
2022/03/02 06:30:34;;;;;;;223.98;42.20;;;;;;;-149.78;100.00;50461.66;4808371;29;20493;-71
2022/03/02 06:32:59;;;;;;;214.00;42.08;;;;;;;-149.78;100.00;50440.16;4810331;29;20035;-71
2022/03/02 06:35:25;;;;;;;218.68;41.97;;;;;;;-149.78;100.00;50428.41;4801255;29;20039;-71
2022/03/02 06:37:51;;;;;;;212.57;41.42;;;;;;;-149.78;100.00;50428.41;4799393;29;20489;-71
2022/03/02 06:40:17;;;;;;;212.43;41.15;;;;;;;-149.78;100.00;50387.34;4798816;29;20427;-71
2022/03/02 06:42:59;;;;;;;209.10;41.20;;;;;;;-149.78;100.00;50440.16;4808632;29;20217;-71
2022/03/02 06:45:34;;;;;;;213.73;41.80;;;;;;;-149.78;100.00;50471.44;4812614;29;20043;-71
2022/03/02 06:48:11;;;;;;;210.57;40.40;;;;;;;-149.78;100.00;50420.59;4802674;29;20383;-71
2022/03/02 06:50:38;;;;;;;213.68;41.50;;;;;;;-149.78;100.00;50426.47;4799579;29;20535;-71
2022/03/02 06:53:08;;;;;;;217.93;40.35;;;;;;;-149.78;100.00;50444.06;4807404;29;20039;-71
2022/03/02 06:55:34;;;;;;;204.73;41.80;;;;;;;-149.78;100.00;50418.63;4791292;29;20062;-70
2022/03/02 06:58:02;;;;;;;209.23;42.30;;;;;;;-149.78;100.00;50428.41;4797177;29;20038;-71
2022/03/02 07:00:30;;;;;;;201.77;42.00;;;;;;;-149.78;100.00;50438.19;4806917;29;20075;-71
2022/03/02 07:03:04;;;;;;;216.80;39.95;;;;;;;-149.78;100.00;50451.88;4810914;29;20504;-71
2022/03/02 07:05:31;;;;;;;210.25;37.50;;;;;;;-149.78;100.00;50416.69;4814967;29;20434;-71
2022/03/02 07:07:59;;;;;;;201.73;38.85;;;;;;;-149.78;100.00;50477.31;4818225;29;20472;-71
2022/03/02 07:10:26;;;;;;;213.85;38.60;;;;;;;-149.78;100.00;50455.81;4800121;29;20435;-71
2022/03/02 07:12:52;;;;;;;193.38;39.72;;;;;;;-149.78;100.00;50440.16;4794885;29;20040;-70
2022/03/02 07:15:18;;;;;;;206.70;40.05;;;;;;;-149.78;100.00;50440.16;4790436;29;20601;-70
2022/03/02 07:17:44;;;;;;;191.05;40.95;;;;;;;-149.78;100.00;50424.50;4805853;29;20086;-69
2022/03/02 07:20:11;;;;;;;207.27;40.55;;;;;;;-149.78;100.00;50434.28;4787023;29;20104;-70
2022/03/02 07:22:43;;;;;;;189.27;37.70;;;;;;;-149.78;100.00;50451.88;4800837;29;20050;-69
2022/03/02 07:25:21;;;;;;;190.70;38.07;;;;;;;-149.78;100.00;50459.72;4808650;29;20035;-70
2022/03/02 07:27:49;;;;;;;195.25;41.75;;;;;;;-149.78;100.00;50438.19;4797880;29;20598;-70
2022/03/02 07:30:16;;;;;;;207.65;44.25;;;;;;;-149.78;100.00;50498.81;4813519;29;20046;-70
2022/03/02 07:32:45;;;;;;;193.57;39.42;;;;;;;-149.78;100.00;50459.72;4804819;29;20134;-69
2022/03/02 07:35:14;;;;;;;189.23;39.28;;;;;;;-149.78;100.00;50432.31;4807406;29;20034;-69
2022/03/02 07:37:41;;;;;;;196.95;38.05;;;;;;;-149.78;100.00;50455.81;4805862;29;20054;-68
2022/03/02 07:40:08;;;;;;;186.57;38.65;;;;;;;-149.78;100.00;50463.63;4789684;29;20047;-70
2022/03/02 07:42:34;;;;;;;207.45;40.42;;;;;;;-149.78;100.00;50428.41;4814555;29;20045;-70
2022/03/02 07:45:00;;;;;;;184.68;39.47;;;;;;;-149.78;100.00;50438.19;4823722;29;20049;-70
2022/03/02 07:47:26;;;;;;;184.70;37.20;;;;;;;-149.78;100.00;50447.97;4812451;29;20046;-70
2022/03/02 07:49:52;;;;;;;180.75;37.25;;;;;;;-149.78;100.00;50440.16;4822210;29;20042;-70
2022/03/02 07:52:20;;;;;;;168.63;38.42;;;;;;;-149.78;100.00;50463.63;4817466;29;20047;-70
2022/03/02 07:54:52;;;;;;;194.82;41.60;;;;;;;-149.78;100.00;50410.81;4820535;29;20042;-69
2022/03/02 07:57:18;;;;;;;195.88;41.17;;;;;;;-149.78;100.00;50487.09;4802206;29;20099;-69
2022/03/02 07:59:44;;;;;;;208.80;41.05;;;;;;;-149.78;100.00;50447.97;4800451;29;20039;-70
2022/03/02 08:02:13;;;;;;;216.25;42.17;;;;;;;-149.78;100.00;50420.59;4806528;29;20114;-69
2022/03/02 08:04:40;;;;;;;222.27;41.60;;;;;;;-149.78;100.00;50438.19;4818450;29;20387;-69
2022/03/02 08:07:05;;;;;;;209.25;41.03;;;;;;;-149.78;100.00;50467.53;4817771;29;20372;-69
2022/03/02 08:09:32;;;;;;;205.02;41.40;;;;;;;-149.78;100.00;50447.97;4812434;29;20098;-69
2022/03/02 08:11:59;;;;;;;209.50;41.53;;;;;;;-149.78;100.00;50459.72;4820949;29;20402;-69
2022/03/02 08:14:25;;;;;;;201.57;39.10;;;;;;;-149.78;100.00;50420.59;4818564;29;20046;-70
2022/03/02 08:16:52;;;;;;;211.57;39.20;;;;;;;-149.78;100.00;50444.06;4814215;29;20387;-70
2022/03/02 08:19:18;;;;;;;207.77;42.15;;;;;;;-149.78;100.00;50438.19;4809800;29;20183;-70
2022/03/02 08:21:50;;;;;;;204.52;44.13;;;;;;;-149.78;100.00;50471.44;4796972;29;20042;-69
2022/03/02 08:24:17;;;;;;;224.45;40.72;;;;;;;-149.78;100.00;50455.81;4795915;29;20065;-70
2022/03/02 08:26:47;;;;;;;203.65;42.25;;;;;;;-149.78;100.00;50479.28;4802860;29;20037;-70
2022/03/02 08:29:14;;;;;;;205.85;41.15;;;;;;;-149.78;100.00;50410.81;4789470;29;20051;-70
2022/03/02 08:31:42;;;;;;;237.50;42.80;;;;;;;-149.78;100.00;50440.16;4796494;29;20147;-70
2022/03/02 08:34:08;;;;;;;205.13;41.40;;;;;;;-149.78;100.00;50416.69;4809140;29;20038;-70
2022/03/02 08:36:34;;;;;;;213.95;43.28;;;;;;;-149.78;100.00;50467.53;4807449;29;20041;-70
2022/03/02 08:39:04;;;;;;;208.02;43.72;;;;;;;-149.78;100.00;50453.84;4822429;29;20120;-71
2022/03/02 08:41:30;;;;;;;183.70;38.17;;;;;;;-149.78;100.00;50451.88;4811549;29;20026;-71
2022/03/02 08:43:57;;;;;;;200.52;41.00;;;;;;;-149.78;100.00;50416.69;4826482;29;20069;-70
2022/03/02 08:46:25;;;;;;;199.65;39.05;;;;;;;-149.78;100.00;50416.69;4807115;29;20047;-71
2022/03/02 08:48:51;;;;;;;177.75;36.45;;;;;;;-149.78;100.00;50455.81;4821107;29;20034;-70
2022/03/02 08:51:20;;;;;;;186.02;38.25;;;;;;;-149.78;100.00;50451.88;4811436;29;20046;-70
2022/03/02 08:53:48;;;;;;;188.02;36.83;;;;;;;-149.78;100.00;50455.81;4807281;29;20444;-71
2022/03/02 08:56:14;;;;;;;164.82;35.15;;;;;;;-149.78;100.00;50455.81;4815978;29;20121;-71
2022/03/02 08:58:40;;;;;;;162.73;34.85;;;;;;;-149.78;100.00;50428.41;4825171;29;20195;-71
2022/03/02 09:01:09;;;;;;;175.93;36.10;;;;;;;-149.78;100.00;50432.31;4825121;29;20696;-71
2022/03/02 09:03:35;;;;;;;159.88;35.15;;;;;;;-149.78;100.00;50428.41;4822821;29;20046;-71
2022/03/02 09:06:02;;;;;;;157.57;33.40;;;;;;;-149.78;100.00;50455.81;4822899;29;20058;-71
2022/03/02 09:08:29;;;;;;;154.15;31.30;;;;;;;-149.78;100.00;50440.16;4795585;29;20066;-70
2022/03/02 09:10:54;;;;;;;123.75;29.98;;;;;;;-149.78;100.00;50424.50;4804848;29;20050;-71
2022/03/02 09:13:21;;;;;;;142.27;31.73;;;;;;;-149.78;100.00;50465.56;4823267;29;20039;-71
2022/03/02 09:15:46;;;;;;;154.05;32.30;;;;;;;-149.78;100.00;50436.25;4806767;29;20047;-71
2022/03/02 09:18:12;;;;;;;148.93;33.20;;;;;;;-149.78;100.00;50440.16;4802118;29;20110;-71
2022/03/02 09:20:41;;;;;;;144.43;33.35;;;;;;;-149.78;100.00;50430.38;4800133;29;20070;-71
2022/03/02 09:23:07;;;;;;;158.10;33.72;;;;;;;-149.78;100.00;50455.81;4789305;29;20031;-71
2022/03/02 09:25:38;;;;;;;148.15;32.33;;;;;;;-149.78;100.00;50461.66;4806062;29;20038;-71
2022/03/02 09:28:04;;;;;;;158.75;32.13;;;;;;;-149.78;100.00;50481.22;4801608;29;20043;-71
2022/03/02 09:30:30;;;;;;;147.10;32.88;;;;;;;-149.78;100.00;50428.41;4803838;29;20391;-71
2022/03/02 09:32:59;;;;;;;143.95;31.75;;;;;;;-149.78;100.00;50440.16;4804228;29;20035;-71
2022/03/02 09:35:27;;;;;;;138.70;31.40;;;;;;;-149.78;100.00;50434.28;4799252;29;20043;-71
2022/03/02 09:37:54;;;;;;;157.30;33.00;;;;;;;-149.78;100.00;50455.81;4793807;29;20072;-71
2022/03/02 09:40:29;;;;;;;155.82;31.88;;;;;;;-149.78;100.00;50455.81;4800349;29;20066;-71
2022/03/02 09:43:05;;;;;;;133.98;29.38;;;;;;;-149.78;100.00;50465.56;4820526;29;20034;-71
2022/03/02 09:45:32;;;;;;;142.00;31.50;;;;;;;-149.78;100.00;50436.25;4822022;29;20135;-71
2022/03/02 09:48:03;;;;;;;120.10;28.45;;;;;;;-149.78;100.00;50455.81;4797493;29;20110;-71
2022/03/02 09:50:35;;;;;;;124.55;29.45;;;;;;;-149.78;100.00;50467.53;4786552;29;20050;-72
2022/03/02 09:53:07;;;;;;;127.95;31.20;;;;;;;-149.78;100.00;50475.34;4797032;29;20074;-72
2022/03/02 09:55:34;;;;;;;;;;;;;;;-149.78;100.00;50447.97;4798979;29;20054;-72
2022/03/02 09:58:00;;;;;;;135.30;28.20;;;;;;;-149.78;100.00;50453.84;4807989;29;19920;-73
2022/03/02 10:00:28;;;;;;;114.40;28.48;;;;;;;-149.78;100.00;50404.94;4815259;29;20039;-72
2022/03/02 10:02:57;;;;;;;118.93;26.33;;;;;;;-149.78;100.00;50440.16;4820092;29;20043;-72
2022/03/02 10:05:29;;;;;;;122.40;28.55;;;;;;;-149.78;100.00;50463.63;4815130;29;20038;-72
2022/03/02 10:08:00;;;;;;;132.38;29.60;;;;;;;-149.78;100.00;50440.16;4824458;29;20382;-72
2022/03/02 10:10:31;;;;;;;122.33;28.10;;;;;;;-149.78;100.00;50479.28;4815557;29;20049;-72
2022/03/02 10:12:59;;;;;;;118.47;29.85;;;;;;;-149.78;100.00;50404.94;4820243;29;20395;-71
2022/03/02 10:15:26;;;;;;;120.95;28.70;;;;;;;-149.78;100.00;50444.06;4809870;29;20042;-71
2022/03/02 10:17:53;;;;;;;131.15;31.30;;;;;;;-149.78;100.00;50440.16;4819662;29;20081;-72
2022/03/02 10:20:25;;;;;;;128.20;30.88;;;;;;;-149.78;100.00;50455.81;4806673;29;20103;-71
2022/03/02 10:23:31;;;;;;;133.55;29.15;;;;;;;-149.78;100.00;50477.31;4817945;29;20034;-72
2022/03/02 10:26:02;;;;;;;112.68;27.23;;;;;;;-149.78;100.00;50432.31;4803926;29;20092;-72
2022/03/02 10:29:00;;;;;;;119.10;27.45;;;;;;;-149.78;100.00;50438.19;4800908;29;20129;-72
2022/03/02 10:31:39;;;;;;;107.32;27.95;;;;;;;-149.78;100.00;50412.78;4821818;29;20045;-72
2022/03/02 10:34:25;;;;;;;118.75;27.75;;;;;;;-149.78;100.00;50420.59;4808469;29;20062;-71
2022/03/02 10:37:07;;;;;;;118.60;27.98;;;;;;;-149.78;100.00;50447.97;4811900;29;20042;-71
2022/03/02 10:39:53;;;;;;;115.35;29.38;;;;;;;-149.78;100.00;50451.88;4821488;29;20498;-72
2022/03/02 10:42:28;;;;;;;118.88;29.55;;;;;;;-149.78;100.00;50467.53;4815346;29;20368;-72
2022/03/02 10:45:12;;;;;;;113.25;28.90;;;;;;;-149.78;100.00;50393.22;4824644;29;20383;-72
2022/03/02 10:47:46;;;;;;;122.32;30.23;;;;;;;-149.78;100.00;50436.25;4809002;29;20090;-72
2022/03/02 10:50:13;;;;;;;103.55;28.67;;;;;;;-149.78;100.00;50469.50;4823249;29;20531;-72
2022/03/02 10:52:41;;;;;;;114.78;29.95;;;;;;;-149.78;100.00;50483.19;4812958;29;20049;-72
2022/03/02 10:55:10;;;;;;;117.80;32.53;;;;;;;-149.78;100.00;50451.88;4805022;29;20125;-72